sensor_id;sensor_type;location;lat;lon;timestamp;temperature;humidity
2010;DHT22;1008;47.404;8.502;2024-02-23T00:00:47;7.00;99.90
2010;DHT22;1008;47.404;8.502;2024-02-23T00:03:15;7.10;99.90
2010;DHT22;1008;47.404;8.502;2024-02-23T00:05:42;7.10;99.90
2010;DHT22;1008;47.404;8.502;2024-02-23T00:08:09;7.20;99.90
2010;DHT22;1008;47.404;8.502;2024-02-23T00:10:35;7.20;99.90
2010;DHT22;1008;47.404;8.502;2024-02-23T00:13:02;7.20;99.90
2010;DHT22;1008;47.404;8.502;2024-02-23T00:15:29;7.20;99.90
2010;DHT22;1008;47.404;8.502;2024-02-23T00:17:55;7.20;99.90
2010;DHT22;1008;47.404;8.502;2024-02-23T00:20:23;7.10;99.90
2010;DHT22;1008;47.404;8.502;2024-02-23T00:22:50;7.10;99.90
2010;DHT22;1008;47.404;8.502;2024-02-23T00:25:17;7.20;99.90
2010;DHT22;1008;47.404;8.502;2024-02-23T00:27:44;7.10;99.90
2010;DHT22;1008;47.404;8.502;2024-02-23T00:30:13;7.20;99.90
2010;DHT22;1008;47.404;8.502;2024-02-23T00:32:40;7.20;99.90
2010;DHT22;1008;47.404;8.502;2024-02-23T00:35:07;7.10;99.90
2010;DHT22;1008;47.404;8.502;2024-02-23T00:37:35;7.20;99.90
2010;DHT22;1008;47.404;8.502;2024-02-23T00:40:02;7.20;99.90
2010;DHT22;1008;47.404;8.502;2024-02-23T00:42:29;7.20;99.90
2010;DHT22;1008;47.404;8.502;2024-02-23T00:44:56;7.10;99.90
2010;DHT22;1008;47.404;8.502;2024-02-23T00:47:23;7.10;99.90
2010;DHT22;1008;47.404;8.502;2024-02-23T00:49:50;7.20;99.90
2010;DHT22;1008;47.404;8.502;2024-02-23T00:52:17;7.10;99.90
2010;DHT22;1008;47.404;8.502;2024-02-23T00:54:45;7.10;99.90
2010;DHT22;1008;47.404;8.502;2024-02-23T00:57:12;7.20;99.90
2010;DHT22;1008;47.404;8.502;2024-02-23T00:59:38;7.30;99.90
2010;DHT22;1008;47.404;8.502;2024-02-23T01:02:05;7.20;99.90
2010;DHT22;1008;47.404;8.502;2024-02-23T01:04:32;7.20;99.90
2010;DHT22;1008;47.404;8.502;2024-02-23T01:06:58;7.30;99.90
2010;DHT22;1008;47.404;8.502;2024-02-23T01:09:26;7.20;99.90
2010;DHT22;1008;47.404;8.502;2024-02-23T01:11:54;7.30;99.90
2010;DHT22;1008;47.404;8.502;2024-02-23T01:14:20;7.30;99.90
2010;DHT22;1008;47.404;8.502;2024-02-23T01:16:47;7.30;99.90
2010;DHT22;1008;47.404;8.502;2024-02-23T01:19:14;7.30;99.90
2010;DHT22;1008;47.404;8.502;2024-02-23T01:21:41;7.20;99.90
2010;DHT22;1008;47.404;8.502;2024-02-23T01:24:08;7.00;99.90
2010;DHT22;1008;47.404;8.502;2024-02-23T01:26:34;6.80;99.90
2010;DHT22;1008;47.404;8.502;2024-02-23T01:29:03;6.40;99.90
2010;DHT22;1008;47.404;8.502;2024-02-23T01:31:29;6.10;99.90
2010;DHT22;1008;47.404;8.502;2024-02-23T01:33:56;6.00;99.90
2010;DHT22;1008;47.404;8.502;2024-02-23T01:36:23;5.60;99.90
2010;DHT22;1008;47.404;8.502;2024-02-23T01:38:49;5.30;99.90
2010;DHT22;1008;47.404;8.502;2024-02-23T01:41:16;5.10;99.90
2010;DHT22;1008;47.404;8.502;2024-02-23T01:43:43;4.80;99.90
2010;DHT22;1008;47.404;8.502;2024-02-23T01:46:11;4.80;99.90
2010;DHT22;1008;47.404;8.502;2024-02-23T01:48:37;4.60;99.90
2010;DHT22;1008;47.404;8.502;2024-02-23T01:51:04;4.50;99.90
2010;DHT22;1008;47.404;8.502;2024-02-23T01:53:31;4.40;99.90
2010;DHT22;1008;47.404;8.502;2024-02-23T01:55:59;4.50;99.90
2010;DHT22;1008;47.404;8.502;2024-02-23T01:58:28;4.40;99.90
2010;DHT22;1008;47.404;8.502;2024-02-23T02:00:56;4.40;99.90
2010;DHT22;1008;47.404;8.502;2024-02-23T02:03:24;4.50;99.90
2010;DHT22;1008;47.404;8.502;2024-02-23T02:05:51;4.40;99.90
2010;DHT22;1008;47.404;8.502;2024-02-23T02:08:19;4.40;99.90
2010;DHT22;1008;47.404;8.502;2024-02-23T02:10:46;4.40;99.90
2010;DHT22;1008;47.404;8.502;2024-02-23T02:13:12;4.40;99.90
2010;DHT22;1008;47.404;8.502;2024-02-23T02:15:39;4.50;99.90
2010;DHT22;1008;47.404;8.502;2024-02-23T02:18:06;4.60;99.90
2010;DHT22;1008;47.404;8.502;2024-02-23T02:20:36;4.70;99.90
2010;DHT22;1008;47.404;8.502;2024-02-23T02:23:03;4.80;99.90
2010;DHT22;1008;47.404;8.502;2024-02-23T02:25:32;5.00;99.90
2010;DHT22;1008;47.404;8.502;2024-02-23T02:27:59;5.10;99.90
2010;DHT22;1008;47.404;8.502;2024-02-23T02:30:26;5.20;99.90
2010;DHT22;1008;47.404;8.502;2024-02-23T02:32:52;5.20;99.90
2010;DHT22;1008;47.404;8.502;2024-02-23T02:35:19;5.30;99.90
2010;DHT22;1008;47.404;8.502;2024-02-23T02:37:47;5.30;99.90
2010;DHT22;1008;47.404;8.502;2024-02-23T02:40:15;5.50;99.90
2010;DHT22;1008;47.404;8.502;2024-02-23T02:42:41;5.50;99.90
2010;DHT22;1008;47.404;8.502;2024-02-23T02:45:08;5.30;99.90
2010;DHT22;1008;47.404;8.502;2024-02-23T02:47:35;5.30;99.90
2010;DHT22;1008;47.404;8.502;2024-02-23T02:50:02;5.30;99.90
2010;DHT22;1008;47.404;8.502;2024-02-23T02:52:32;5.30;99.90
2010;DHT22;1008;47.404;8.502;2024-02-23T02:55:00;5.40;99.90
2010;DHT22;1008;47.404;8.502;2024-02-23T02:57:26;5.40;99.90
2010;DHT22;1008;47.404;8.502;2024-02-23T02:59:53;5.50;99.90
2010;DHT22;1008;47.404;8.502;2024-02-23T03:02:20;5.60;99.90
2010;DHT22;1008;47.404;8.502;2024-02-23T03:04:47;5.70;99.90
2010;DHT22;1008;47.404;8.502;2024-02-23T03:07:14;5.80;99.90
2010;DHT22;1008;47.404;8.502;2024-02-23T03:09:41;5.90;99.90
2010;DHT22;1008;47.404;8.502;2024-02-23T03:12:10;5.90;99.90
2010;DHT22;1008;47.404;8.502;2024-02-23T03:14:39;6.00;99.90
2010;DHT22;1008;47.404;8.502;2024-02-23T03:17:07;6.20;99.90
2010;DHT22;1008;47.404;8.502;2024-02-23T03:19:34;6.20;99.90
2010;DHT22;1008;47.404;8.502;2024-02-23T03:22:01;6.30;99.90
2010;DHT22;1008;47.404;8.502;2024-02-23T03:24:28;6.40;99.90
2010;DHT22;1008;47.404;8.502;2024-02-23T03:26:55;6.40;99.90
2010;DHT22;1008;47.404;8.502;2024-02-23T03:29:23;6.40;99.90
2010;DHT22;1008;47.404;8.502;2024-02-23T03:31:50;6.10;99.90
2010;DHT22;1008;47.404;8.502;2024-02-23T03:34:17;6.20;99.90
2010;DHT22;1008;47.404;8.502;2024-02-23T03:36:44;6.20;99.90
2010;DHT22;1008;47.404;8.502;2024-02-23T03:39:10;6.00;99.90
2010;DHT22;1008;47.404;8.502;2024-02-23T03:41:37;6.20;99.90
2010;DHT22;1008;47.404;8.502;2024-02-23T03:44:04;6.60;99.90
2010;DHT22;1008;47.404;8.502;2024-02-23T03:46:32;6.50;99.90
2010;DHT22;1008;47.404;8.502;2024-02-23T03:49:00;6.50;99.90
2010;DHT22;1008;47.404;8.502;2024-02-23T03:51:26;6.60;99.90
2010;DHT22;1008;47.404;8.502;2024-02-23T03:53:53;6.50;99.90
2010;DHT22;1008;47.404;8.502;2024-02-23T03:56:20;6.60;99.90
2010;DHT22;1008;47.404;8.502;2024-02-23T03:58:46;6.80;99.90
2010;DHT22;1008;47.404;8.502;2024-02-23T04:01:13;6.70;99.90
2010;DHT22;1008;47.404;8.502;2024-02-23T04:03:41;6.60;99.90
2010;DHT22;1008;47.404;8.502;2024-02-23T04:06:08;6.50;99.90
2010;DHT22;1008;47.404;8.502;2024-02-23T04:08:34;6.60;99.90
2010;DHT22;1008;47.404;8.502;2024-02-23T04:11:01;6.70;99.90
2010;DHT22;1008;47.404;8.502;2024-02-23T04:13:28;6.90;99.90
2010;DHT22;1008;47.404;8.502;2024-02-23T04:15:54;6.80;99.90
2010;DHT22;1008;47.404;8.502;2024-02-23T04:18:22;6.90;99.90
2010;DHT22;1008;47.404;8.502;2024-02-23T04:20:50;6.90;99.90
2010;DHT22;1008;47.404;8.502;2024-02-23T04:23:17;7.00;99.90
2010;DHT22;1008;47.404;8.502;2024-02-23T04:25:44;7.10;99.90
2010;DHT22;1008;47.404;8.502;2024-02-23T04:28:10;7.10;99.90
2010;DHT22;1008;47.404;8.502;2024-02-23T04:30:37;7.10;99.90
2010;DHT22;1008;47.404;8.502;2024-02-23T04:33:04;7.20;99.90
2010;DHT22;1008;47.404;8.502;2024-02-23T04:35:30;7.10;99.90
2010;DHT22;1008;47.404;8.502;2024-02-23T04:37:58;7.20;99.90
2010;DHT22;1008;47.404;8.502;2024-02-23T04:40:25;7.10;99.90
2010;DHT22;1008;47.404;8.502;2024-02-23T04:42:52;7.00;99.90
2010;DHT22;1008;47.404;8.502;2024-02-23T04:45:19;7.00;99.90
2010;DHT22;1008;47.404;8.502;2024-02-23T04:47:45;7.00;99.90
2010;DHT22;1008;47.404;8.502;2024-02-23T04:50:14;6.90;99.90
2010;DHT22;1008;47.404;8.502;2024-02-23T04:52:40;7.00;99.90
2010;DHT22;1008;47.404;8.502;2024-02-23T04:55:09;7.00;99.90
2010;DHT22;1008;47.404;8.502;2024-02-23T04:57:36;6.80;99.90
2010;DHT22;1008;47.404;8.502;2024-02-23T05:00:04;6.80;99.90
2010;DHT22;1008;47.404;8.502;2024-02-23T05:02:32;6.90;99.90
2010;DHT22;1008;47.404;8.502;2024-02-23T05:05:00;6.80;99.90
2010;DHT22;1008;47.404;8.502;2024-02-23T05:07:29;6.70;99.90
2010;DHT22;1008;47.404;8.502;2024-02-23T05:09:56;6.60;99.90
2010;DHT22;1008;47.404;8.502;2024-02-23T05:12:24;6.50;99.90
2010;DHT22;1008;47.404;8.502;2024-02-23T05:14:51;6.60;99.90
2010;DHT22;1008;47.404;8.502;2024-02-23T05:17:18;6.80;99.90
2010;DHT22;1008;47.404;8.502;2024-02-23T05:19:45;6.90;99.90
2010;DHT22;1008;47.404;8.502;2024-02-23T05:22:12;6.80;99.90
2010;DHT22;1008;47.404;8.502;2024-02-23T05:24:38;6.70;99.90
2010;DHT22;1008;47.404;8.502;2024-02-23T05:27:05;6.50;99.90
2010;DHT22;1008;47.404;8.502;2024-02-23T05:29:33;6.40;99.90
2010;DHT22;1008;47.404;8.502;2024-02-23T05:32:00;6.60;99.90
2010;DHT22;1008;47.404;8.502;2024-02-23T05:34:27;6.60;99.90
2010;DHT22;1008;47.404;8.502;2024-02-23T05:36:53;6.60;99.90
2010;DHT22;1008;47.404;8.502;2024-02-23T05:39:21;6.70;99.90
2010;DHT22;1008;47.404;8.502;2024-02-23T05:41:47;6.70;99.90
2010;DHT22;1008;47.404;8.502;2024-02-23T05:44:14;6.70;99.90
2010;DHT22;1008;47.404;8.502;2024-02-23T05:46:42;6.60;99.90
2010;DHT22;1008;47.404;8.502;2024-02-23T05:49:10;6.70;99.90
2010;DHT22;1008;47.404;8.502;2024-02-23T05:51:36;6.80;99.90
2010;DHT22;1008;47.404;8.502;2024-02-23T05:54:03;6.60;99.90
2010;DHT22;1008;47.404;8.502;2024-02-23T05:56:30;6.80;99.90
2010;DHT22;1008;47.404;8.502;2024-02-23T05:58:56;6.60;99.90
2010;DHT22;1008;47.404;8.502;2024-02-23T06:01:23;6.50;99.90
2010;DHT22;1008;47.404;8.502;2024-02-23T06:03:51;6.40;99.90
2010;DHT22;1008;47.404;8.502;2024-02-23T06:06:18;6.40;99.90
2010;DHT22;1008;47.404;8.502;2024-02-23T06:08:45;6.30;99.90
2010;DHT22;1008;47.404;8.502;2024-02-23T06:11:15;6.30;99.90
2010;DHT22;1008;47.404;8.502;2024-02-23T06:13:41;6.20;99.90
2010;DHT22;1008;47.404;8.502;2024-02-23T06:16:10;6.20;99.90
2010;DHT22;1008;47.404;8.502;2024-02-23T06:18:37;6.30;99.90
2010;DHT22;1008;47.404;8.502;2024-02-23T06:21:12;5.90;99.90
2010;DHT22;1008;47.404;8.502;2024-02-23T06:23:40;5.80;99.90
2010;DHT22;1008;47.404;8.502;2024-02-23T06:26:06;5.90;99.90
2010;DHT22;1008;47.404;8.502;2024-02-23T06:28:33;5.80;99.90
2010;DHT22;1008;47.404;8.502;2024-02-23T06:31:00;5.70;99.90
2010;DHT22;1008;47.404;8.502;2024-02-23T06:33:27;5.80;99.90
2010;DHT22;1008;47.404;8.502;2024-02-23T06:35:54;5.80;99.90
2010;DHT22;1008;47.404;8.502;2024-02-23T06:38:22;5.70;99.90
2010;DHT22;1008;47.404;8.502;2024-02-23T06:40:49;5.80;99.90
2010;DHT22;1008;47.404;8.502;2024-02-23T06:43:16;5.80;99.90
2010;DHT22;1008;47.404;8.502;2024-02-23T06:45:43;5.80;99.90
2010;DHT22;1008;47.404;8.502;2024-02-23T06:48:10;5.80;99.90
2010;DHT22;1008;47.404;8.502;2024-02-23T06:50:37;5.80;99.90
2010;DHT22;1008;47.404;8.502;2024-02-23T06:53:04;5.80;99.90
2010;DHT22;1008;47.404;8.502;2024-02-23T06:55:34;5.70;99.90
2010;DHT22;1008;47.404;8.502;2024-02-23T06:58:01;5.70;99.90
2010;DHT22;1008;47.404;8.502;2024-02-23T07:00:30;5.70;99.90
2010;DHT22;1008;47.404;8.502;2024-02-23T07:02:56;5.70;99.90
2010;DHT22;1008;47.404;8.502;2024-02-23T07:05:24;5.70;99.90
2010;DHT22;1008;47.404;8.502;2024-02-23T07:07:51;5.60;99.90
2010;DHT22;1008;47.404;8.502;2024-02-23T07:10:17;5.70;99.90
2010;DHT22;1008;47.404;8.502;2024-02-23T07:12:47;5.60;99.90
2010;DHT22;1008;47.404;8.502;2024-02-23T07:15:14;5.60;99.90
2010;DHT22;1008;47.404;8.502;2024-02-23T07:17:41;5.70;99.90
2010;DHT22;1008;47.404;8.502;2024-02-23T07:20:08;5.80;99.90
2010;DHT22;1008;47.404;8.502;2024-02-23T07:22:35;5.80;99.90
2010;DHT22;1008;47.404;8.502;2024-02-23T07:25:02;5.70;99.90
2010;DHT22;1008;47.404;8.502;2024-02-23T07:27:29;5.60;99.90
2010;DHT22;1008;47.404;8.502;2024-02-23T07:29:57;5.50;99.90
2010;DHT22;1008;47.404;8.502;2024-02-23T07:32:24;5.60;99.90
2010;DHT22;1008;47.404;8.502;2024-02-23T07:34:50;5.60;99.90
2010;DHT22;1008;47.404;8.502;2024-02-23T07:37:18;5.80;99.90
2010;DHT22;1008;47.404;8.502;2024-02-23T07:39:44;5.60;99.90
2010;DHT22;1008;47.404;8.502;2024-02-23T07:42:12;5.40;99.90
2010;DHT22;1008;47.404;8.502;2024-02-23T07:44:40;5.60;99.90
2010;DHT22;1008;47.404;8.502;2024-02-23T07:47:08;5.70;99.90
2010;DHT22;1008;47.404;8.502;2024-02-23T07:49:34;5.80;99.90
2010;DHT22;1008;47.404;8.502;2024-02-23T07:52:01;5.90;99.90
2010;DHT22;1008;47.404;8.502;2024-02-23T07:54:29;5.90;99.90
2010;DHT22;1008;47.404;8.502;2024-02-23T07:56:55;6.10;99.90
2010;DHT22;1008;47.404;8.502;2024-02-23T07:59:23;6.10;99.90
2010;DHT22;1008;47.404;8.502;2024-02-23T08:01:49;6.20;99.90
2010;DHT22;1008;47.404;8.502;2024-02-23T08:04:19;6.50;99.90
2010;DHT22;1008;47.404;8.502;2024-02-23T08:06:46;6.30;99.90
2010;DHT22;1008;47.404;8.502;2024-02-23T08:09:13;6.10;99.90
2010;DHT22;1008;47.404;8.502;2024-02-23T08:11:40;6.10;99.90
2010;DHT22;1008;47.404;8.502;2024-02-23T08:14:07;5.90;99.90
2010;DHT22;1008;47.404;8.502;2024-02-23T08:16:34;5.70;99.90
2010;DHT22;1008;47.404;8.502;2024-02-23T08:19:00;5.90;99.90
2010;DHT22;1008;47.404;8.502;2024-02-23T08:21:28;5.90;99.90
2010;DHT22;1008;47.404;8.502;2024-02-23T08:23:55;5.80;99.90
2010;DHT22;1008;47.404;8.502;2024-02-23T08:26:22;5.80;99.90
2010;DHT22;1008;47.404;8.502;2024-02-23T08:28:49;5.80;99.90
2010;DHT22;1008;47.404;8.502;2024-02-23T08:31:15;6.00;99.90
2010;DHT22;1008;47.404;8.502;2024-02-23T08:33:43;6.10;99.90
2010;DHT22;1008;47.404;8.502;2024-02-23T08:36:10;6.10;99.90
2010;DHT22;1008;47.404;8.502;2024-02-23T08:38:38;6.30;99.90
2010;DHT22;1008;47.404;8.502;2024-02-23T08:41:05;6.40;99.90
2010;DHT22;1008;47.404;8.502;2024-02-23T08:43:31;6.30;99.90
2010;DHT22;1008;47.404;8.502;2024-02-23T08:45:58;6.40;99.90
2010;DHT22;1008;47.404;8.502;2024-02-23T08:48:25;6.50;99.90
2010;DHT22;1008;47.404;8.502;2024-02-23T08:50:51;6.60;99.90
2010;DHT22;1008;47.404;8.502;2024-02-23T08:53:18;6.50;99.90
2010;DHT22;1008;47.404;8.502;2024-02-23T08:55:46;6.80;99.90
2010;DHT22;1008;47.404;8.502;2024-02-23T08:58:13;6.60;99.90
2010;DHT22;1008;47.404;8.502;2024-02-23T09:00:39;6.50;99.90
2010;DHT22;1008;47.404;8.502;2024-02-23T09:03:06;6.60;99.90
2010;DHT22;1008;47.404;8.502;2024-02-23T09:05:33;6.40;99.90
2010;DHT22;1008;47.404;8.502;2024-02-23T09:07:59;6.70;99.90
2010;DHT22;1008;47.404;8.502;2024-02-23T09:10:26;6.70;99.90
2010;DHT22;1008;47.404;8.502;2024-02-23T09:12:54;7.00;99.90
2010;DHT22;1008;47.404;8.502;2024-02-23T09:15:21;7.00;99.90
2010;DHT22;1008;47.404;8.502;2024-02-23T09:17:47;7.00;99.90
2010;DHT22;1008;47.404;8.502;2024-02-23T09:20:15;6.90;99.90
2010;DHT22;1008;47.404;8.502;2024-02-23T09:22:43;6.90;99.90
2010;DHT22;1008;47.404;8.502;2024-02-23T09:25:09;6.60;99.90
2010;DHT22;1008;47.404;8.502;2024-02-23T09:27:36;6.60;99.90
2010;DHT22;1008;47.404;8.502;2024-02-23T09:30:11;6.80;99.90
2010;DHT22;1008;47.404;8.502;2024-02-23T09:32:38;6.80;99.90
2010;DHT22;1008;47.404;8.502;2024-02-23T09:35:05;6.70;99.90
2010;DHT22;1008;47.404;8.502;2024-02-23T09:37:32;6.80;99.90
2010;DHT22;1008;47.404;8.502;2024-02-23T09:39:59;6.90;99.90
2010;DHT22;1008;47.404;8.502;2024-02-23T09:42:28;6.90;99.90
2010;DHT22;1008;47.404;8.502;2024-02-23T09:44:59;7.00;99.90
2010;DHT22;1008;47.404;8.502;2024-02-23T09:47:27;6.80;99.90
2010;DHT22;1008;47.404;8.502;2024-02-23T09:49:54;6.90;99.90
2010;DHT22;1008;47.404;8.502;2024-02-23T09:52:22;6.90;99.90
2010;DHT22;1008;47.404;8.502;2024-02-23T09:54:49;6.80;99.90
2010;DHT22;1008;47.404;8.502;2024-02-23T09:57:16;7.00;99.90
2010;DHT22;1008;47.404;8.502;2024-02-23T09:59:44;6.80;99.90
2010;DHT22;1008;47.404;8.502;2024-02-23T10:02:15;6.80;99.90
2010;DHT22;1008;47.404;8.502;2024-02-23T10:04:44;6.70;99.90
2010;DHT22;1008;47.404;8.502;2024-02-23T10:07:14;6.40;99.90
2010;DHT22;1008;47.404;8.502;2024-02-23T10:09:41;6.50;99.90
2010;DHT22;1008;47.404;8.502;2024-02-23T10:12:08;6.40;99.90
2010;DHT22;1008;47.404;8.502;2024-02-23T10:14:35;6.40;99.90
2010;DHT22;1008;47.404;8.502;2024-02-23T10:17:02;6.80;99.90
2010;DHT22;1008;47.404;8.502;2024-02-23T10:19:28;6.70;99.90
2010;DHT22;1008;47.404;8.502;2024-02-23T10:21:56;6.50;99.90
2010;DHT22;1008;47.404;8.502;2024-02-23T10:24:23;6.50;99.90
2010;DHT22;1008;47.404;8.502;2024-02-23T10:26:51;6.90;99.90
2010;DHT22;1008;47.404;8.502;2024-02-23T10:29:17;7.00;99.90
2010;DHT22;1008;47.404;8.502;2024-02-23T10:31:46;6.80;99.90
2010;DHT22;1008;47.404;8.502;2024-02-23T10:34:17;6.80;99.90
2010;DHT22;1008;47.404;8.502;2024-02-23T10:36:45;6.90;99.90
2010;DHT22;1008;47.404;8.502;2024-02-23T10:39:17;7.00;99.90
2010;DHT22;1008;47.404;8.502;2024-02-23T10:41:47;7.00;99.90
2010;DHT22;1008;47.404;8.502;2024-02-23T10:44:17;7.00;99.90
2010;DHT22;1008;47.404;8.502;2024-02-23T10:46:45;7.00;99.90
2010;DHT22;1008;47.404;8.502;2024-02-23T10:49:14;7.20;99.90
2010;DHT22;1008;47.404;8.502;2024-02-23T10:51:42;7.40;99.90
2010;DHT22;1008;47.404;8.502;2024-02-23T10:54:10;7.40;99.90
2010;DHT22;1008;47.404;8.502;2024-02-23T10:56:40;7.40;99.90
2010;DHT22;1008;47.404;8.502;2024-02-23T10:59:08;7.50;99.90
2010;DHT22;1008;47.404;8.502;2024-02-23T11:01:36;7.80;99.90
2010;DHT22;1008;47.404;8.502;2024-02-23T11:04:04;8.30;99.90
2010;DHT22;1008;47.404;8.502;2024-02-23T11:06:33;8.30;99.90
2010;DHT22;1008;47.404;8.502;2024-02-23T11:09:06;8.50;99.90
2010;DHT22;1008;47.404;8.502;2024-02-23T11:11:34;8.50;99.90
2010;DHT22;1008;47.404;8.502;2024-02-23T11:14:07;8.70;99.90
2010;DHT22;1008;47.404;8.502;2024-02-23T11:16:38;9.00;99.90
2010;DHT22;1008;47.404;8.502;2024-02-23T11:19:06;9.80;99.90
2010;DHT22;1008;47.404;8.502;2024-02-23T11:21:35;10.00;99.90
2010;DHT22;1008;47.404;8.502;2024-02-23T11:24:04;10.20;99.90
2010;DHT22;1008;47.404;8.502;2024-02-23T11:26:31;11.00;99.90
2010;DHT22;1008;47.404;8.502;2024-02-23T11:28:58;11.50;97.80
2010;DHT22;1008;47.404;8.502;2024-02-23T11:31:29;12.00;94.00
2010;DHT22;1008;47.404;8.502;2024-02-23T11:33:57;11.40;90.00
2010;DHT22;1008;47.404;8.502;2024-02-23T11:36:24;11.20;90.60
2010;DHT22;1008;47.404;8.502;2024-02-23T11:38:52;10.80;90.60
2010;DHT22;1008;47.404;8.502;2024-02-23T11:41:21;10.90;91.30
2010;DHT22;1008;47.404;8.502;2024-02-23T11:43:49;10.40;87.60
2010;DHT22;1008;47.404;8.502;2024-02-23T11:46:15;10.50;90.50
2010;DHT22;1008;47.404;8.502;2024-02-23T11:48:43;10.00;89.50
2010;DHT22;1008;47.404;8.502;2024-02-23T11:51:12;9.80;93.00
2010;DHT22;1008;47.404;8.502;2024-02-23T11:53:39;9.90;96.80
2010;DHT22;1008;47.404;8.502;2024-02-23T11:56:06;9.70;97.80
2010;DHT22;1008;47.404;8.502;2024-02-23T11:58:33;9.70;98.80
2010;DHT22;1008;47.404;8.502;2024-02-23T12:01:00;9.70;97.90
2010;DHT22;1008;47.404;8.502;2024-02-23T12:03:28;9.20;99.90
2010;DHT22;1008;47.404;8.502;2024-02-23T12:05:57;9.10;99.90
2010;DHT22;1008;47.404;8.502;2024-02-23T12:08:24;8.80;99.90
2010;DHT22;1008;47.404;8.502;2024-02-23T12:10:51;8.70;99.90
2010;DHT22;1008;47.404;8.502;2024-02-23T12:13:18;8.60;99.90
2010;DHT22;1008;47.404;8.502;2024-02-23T12:15:45;8.60;99.90
2010;DHT22;1008;47.404;8.502;2024-02-23T12:18:13;8.60;99.90
2010;DHT22;1008;47.404;8.502;2024-02-23T12:20:40;8.80;99.90
2010;DHT22;1008;47.404;8.502;2024-02-23T12:23:08;8.90;99.90
2010;DHT22;1008;47.404;8.502;2024-02-23T12:25:35;9.60;99.90
2010;DHT22;1008;47.404;8.502;2024-02-23T12:28:02;9.60;99.90
2010;DHT22;1008;47.404;8.502;2024-02-23T12:30:30;9.40;99.90
2010;DHT22;1008;47.404;8.502;2024-02-23T12:33:03;9.80;99.90
2010;DHT22;1008;47.404;8.502;2024-02-23T12:35:30;9.60;99.90
2010;DHT22;1008;47.404;8.502;2024-02-23T12:37:57;9.40;99.90
2010;DHT22;1008;47.404;8.502;2024-02-23T12:40:25;9.30;99.90
2010;DHT22;1008;47.404;8.502;2024-02-23T12:42:51;9.00;99.90
2010;DHT22;1008;47.404;8.502;2024-02-23T12:45:18;9.30;99.90
2010;DHT22;1008;47.404;8.502;2024-02-23T12:47:45;9.60;99.90
2010;DHT22;1008;47.404;8.502;2024-02-23T12:50:12;9.90;99.90
2010;DHT22;1008;47.404;8.502;2024-02-23T12:52:38;10.30;99.60
2010;DHT22;1008;47.404;8.502;2024-02-23T12:55:06;11.30;99.70
2010;DHT22;1008;47.404;8.502;2024-02-23T12:57:35;11.90;94.00
2010;DHT22;1008;47.404;8.502;2024-02-23T13:00:01;11.50;91.70
2010;DHT22;1008;47.404;8.502;2024-02-23T13:02:30;10.80;92.60
2010;DHT22;1008;47.404;8.502;2024-02-23T13:04:57;10.60;94.00
2010;DHT22;1008;47.404;8.502;2024-02-23T13:07:24;10.50;93.70
2010;DHT22;1008;47.404;8.502;2024-02-23T13:09:50;10.80;94.90
2010;DHT22;1008;47.404;8.502;2024-02-23T13:12:17;11.40;93.90
2010;DHT22;1008;47.404;8.502;2024-02-23T13:14:45;11.60;90.60
2010;DHT22;1008;47.404;8.502;2024-02-23T13:17:12;12.10;86.50
2010;DHT22;1008;47.404;8.502;2024-02-23T13:19:39;12.10;85.10
2010;DHT22;1008;47.404;8.502;2024-02-23T13:22:05;11.80;87.00
2010;DHT22;1008;47.404;8.502;2024-02-23T13:24:32;11.90;86.90
2010;DHT22;1008;47.404;8.502;2024-02-23T13:26:59;11.70;88.40
2010;DHT22;1008;47.404;8.502;2024-02-23T13:29:25;11.60;88.60
2010;DHT22;1008;47.404;8.502;2024-02-23T13:31:54;11.70;89.80
2010;DHT22;1008;47.404;8.502;2024-02-23T13:34:20;10.80;87.10
2010;DHT22;1008;47.404;8.502;2024-02-23T13:36:47;10.30;91.30
2010;DHT22;1008;47.404;8.502;2024-02-23T13:39:15;9.90;92.10
2010;DHT22;1008;47.404;8.502;2024-02-23T13:41:42;9.80;95.70
2010;DHT22;1008;47.404;8.502;2024-02-23T13:44:08;9.80;97.40
2010;DHT22;1008;47.404;8.502;2024-02-23T13:46:38;10.00;97.70
2010;DHT22;1008;47.404;8.502;2024-02-23T13:49:07;9.90;97.60
2010;DHT22;1008;47.404;8.502;2024-02-23T13:51:35;10.40;97.40
2010;DHT22;1008;47.404;8.502;2024-02-23T13:54:02;10.80;97.50
2010;DHT22;1008;47.404;8.502;2024-02-23T13:56:29;11.50;94.10
2010;DHT22;1008;47.404;8.502;2024-02-23T13:58:56;11.30;92.70
2010;DHT22;1008;47.404;8.502;2024-02-23T14:01:22;11.20;92.00
2010;DHT22;1008;47.404;8.502;2024-02-23T14:03:50;11.20;90.80
2010;DHT22;1008;47.404;8.502;2024-02-23T14:06:18;11.60;93.60
2010;DHT22;1008;47.404;8.502;2024-02-23T14:08:45;11.50;87.30
2010;DHT22;1008;47.404;8.502;2024-02-23T14:11:13;11.30;89.30
2010;DHT22;1008;47.404;8.502;2024-02-23T14:13:40;11.20;89.50
2010;DHT22;1008;47.404;8.502;2024-02-23T14:16:06;10.90;91.10
2010;DHT22;1008;47.404;8.502;2024-02-23T14:18:33;10.50;90.80
2010;DHT22;1008;47.404;8.502;2024-02-23T14:21:03;10.00;93.30
2010;DHT22;1008;47.404;8.502;2024-02-23T14:23:32;9.60;92.60
2010;DHT22;1008;47.404;8.502;2024-02-23T14:25:59;9.00;95.10
2010;DHT22;1008;47.404;8.502;2024-02-23T14:28:25;9.00;97.30
2010;DHT22;1008;47.404;8.502;2024-02-23T14:30:52;8.90;97.40
2010;DHT22;1008;47.404;8.502;2024-02-23T14:33:19;8.90;98.50
2010;DHT22;1008;47.404;8.502;2024-02-23T14:35:46;8.90;99.30
2010;DHT22;1008;47.404;8.502;2024-02-23T14:38:12;8.90;98.90
2010;DHT22;1008;47.404;8.502;2024-02-23T14:40:40;8.90;99.10
2010;DHT22;1008;47.404;8.502;2024-02-23T14:43:07;8.80;98.80
2010;DHT22;1008;47.404;8.502;2024-02-23T14:45:35;8.60;99.90
2010;DHT22;1008;47.404;8.502;2024-02-23T14:48:02;8.70;99.60
2010;DHT22;1008;47.404;8.502;2024-02-23T14:50:29;9.00;99.50
2010;DHT22;1008;47.404;8.502;2024-02-23T14:52:55;8.90;97.90
2010;DHT22;1008;47.404;8.502;2024-02-23T14:55:22;9.00;98.70
2010;DHT22;1008;47.404;8.502;2024-02-23T14:57:51;8.80;98.30
2010;DHT22;1008;47.404;8.502;2024-02-23T15:00:18;8.70;98.90
2010;DHT22;1008;47.404;8.502;2024-02-23T15:02:45;8.70;99.70
2010;DHT22;1008;47.404;8.502;2024-02-23T15:05:11;8.60;99.90
2010;DHT22;1008;47.404;8.502;2024-02-23T15:07:38;8.70;99.90
2010;DHT22;1008;47.404;8.502;2024-02-23T15:10:06;8.80;99.90
2010;DHT22;1008;47.404;8.502;2024-02-23T15:12:34;8.80;99.90
2010;DHT22;1008;47.404;8.502;2024-02-23T15:15:02;8.90;99.90
2010;DHT22;1008;47.404;8.502;2024-02-23T15:17:29;8.70;99.90
2010;DHT22;1008;47.404;8.502;2024-02-23T15:19:56;8.60;99.90
2010;DHT22;1008;47.404;8.502;2024-02-23T15:22:22;8.80;99.90
2010;DHT22;1008;47.404;8.502;2024-02-23T15:24:51;8.70;99.90
2010;DHT22;1008;47.404;8.502;2024-02-23T15:27:18;8.90;99.90
2010;DHT22;1008;47.404;8.502;2024-02-23T15:29:45;9.20;98.00
2010;DHT22;1008;47.404;8.502;2024-02-23T15:32:14;9.10;98.40
2010;DHT22;1008;47.404;8.502;2024-02-23T15:34:41;9.00;95.80
2010;DHT22;1008;47.404;8.502;2024-02-23T15:37:07;9.00;96.10
2010;DHT22;1008;47.404;8.502;2024-02-23T15:39:34;8.80;96.20
2010;DHT22;1008;47.404;8.502;2024-02-23T15:42:01;8.60;96.80
2010;DHT22;1008;47.404;8.502;2024-02-23T15:44:28;8.70;96.10
2010;DHT22;1008;47.404;8.502;2024-02-23T15:46:54;8.70;97.00
2010;DHT22;1008;47.404;8.502;2024-02-23T15:49:22;8.70;95.80
2010;DHT22;1008;47.404;8.502;2024-02-23T15:51:50;8.80;96.30
2010;DHT22;1008;47.404;8.502;2024-02-23T15:54:16;9.30;96.00
2010;DHT22;1008;47.404;8.502;2024-02-23T15:56:43;8.90;93.00
2010;DHT22;1008;47.404;8.502;2024-02-23T15:59:10;8.90;94.10
2010;DHT22;1008;47.404;8.502;2024-02-23T16:01:37;8.90;94.00
2010;DHT22;1008;47.404;8.502;2024-02-23T16:04:04;8.90;93.70
2010;DHT22;1008;47.404;8.502;2024-02-23T16:06:33;8.90;92.90
2010;DHT22;1008;47.404;8.502;2024-02-23T16:09:00;9.20;93.10
2010;DHT22;1008;47.404;8.502;2024-02-23T16:11:28;8.80;92.10
2010;DHT22;1008;47.404;8.502;2024-02-23T16:13:57;8.90;92.90
2010;DHT22;1008;47.404;8.502;2024-02-23T16:16:23;8.70;92.90